Time;durP1;ratioP1;P1;durP2;ratioP2;P2;SDS_P1;SDS_P2;PMS_P1;PMS_P2;Temp;Humidity;BMP_temperature;BMP_pressure;BME280_temperature;BME280_humidity;BME280_pressure;Samples;Min_cycle;Max_cycle;Signal;HPM_P1;HPM_P2
2023/08/22 00:00:58;;;;;;;2.50;2.40;;;;;;;23.05;64.33;97145.69;5042300;28;20483;-61
2023/08/22 00:03:24;;;;;;;2.60;2.50;;;;;;;22.81;64.28;97106.91;5040391;28;20060;-61
2023/08/22 00:05:51;;;;;;;2.90;2.80;;;;;;;23.09;64.61;97157.72;5041810;28;20061;-62
2023/08/22 00:08:18;;;;;;;2.90;2.80;;;;;;;23.01;64.66;97155.53;5041750;28;20053;-62
2023/08/22 00:10:46;;;;;;;2.60;2.50;;;;;;;22.94;65.32;97155.72;5041388;28;20077;-61
2023/08/22 00:13:12;;;;;;;2.42;2.40;;;;;;;22.48;65.40;97094.16;5041423;28;20061;-61
2023/08/22 00:15:39;;;;;;;2.33;2.30;;;;;;;22.80;65.53;97154.13;5041308;28;20045;-61
2023/08/22 00:18:06;;;;;;;2.55;2.45;;;;;;;22.74;65.90;97155.94;5041390;28;20056;-60
2023/08/22 00:20:34;;;;;;;2.40;2.38;;;;;;;22.57;66.16;97142.31;5034315;28;20156;-62
2023/08/22 00:23:01;;;;;;;2.40;2.30;;;;;;;22.66;66.28;97150.91;5052588;28;20052;-64
2023/08/22 00:25:27;;;;;;;2.55;2.45;;;;;;;22.71;66.38;97148.34;5041259;28;20048;-61
2023/08/22 00:27:54;;;;;;;2.20;2.20;;;;;;;22.44;66.99;97134.56;5040540;28;20053;-63
2023/08/22 00:30:21;;;;;;;2.58;2.47;;;;;;;22.53;67.28;97158.53;5040952;28;20064;-61
2023/08/22 00:32:48;;;;;;;2.45;2.38;;;;;;;22.44;67.51;97148.69;5040744;28;20452;-62
2023/08/22 00:35:14;;;;;;;2.58;2.47;;;;;;;22.48;67.38;97144.97;5033176;28;20049;-61
2023/08/22 00:37:41;;;;;;;2.58;2.47;;;;;;;22.48;67.57;97149.38;5021331;28;20057;-61
2023/08/22 00:40:08;;;;;;;2.70;2.60;;;;;;;22.49;67.29;97145.28;5021161;28;20124;-62
2023/08/22 00:42:35;;;;;;;2.80;2.70;;;;;;;22.37;67.56;97151.69;5019542;28;20133;-63
2023/08/22 00:45:03;;;;;;;2.47;2.38;;;;;;;22.36;67.25;97147.28;5020923;28;20061;-62
2023/08/22 00:47:30;;;;;;;2.78;2.67;;;;;;;22.31;67.62;97152.69;5021388;28;20080;-61
2023/08/22 00:49:57;;;;;;;2.70;2.60;;;;;;;22.22;68.13;97150.47;5021480;28;20060;-62
2023/08/22 00:52:24;;;;;;;2.60;2.50;;;;;;;22.23;67.73;97146.44;5021664;28;20063;-61
2023/08/22 00:54:51;;;;;;;2.85;2.75;;;;;;;22.01;67.58;97089.00;5025600;28;20053;-60
2023/08/22 00:57:17;;;;;;;2.58;2.47;;;;;;;22.34;67.51;97141.28;5024924;28;20046;-61
2023/08/22 00:59:45;;;;;;;2.65;2.55;;;;;;;22.49;67.29;97153.75;5023489;28;20049;-62
2023/08/22 01:02:11;;;;;;;2.30;2.30;;;;;;;22.42;67.45;97145.50;5024065;28;20057;-61
2023/08/22 01:04:38;;;;;;;2.70;2.60;;;;;;;22.60;67.23;97152.72;5025413;28;20049;-62
2023/08/22 01:07:15;;;;;;;2.60;2.50;;;;;;;22.55;67.50;97150.44;5024895;28;20053;-61
2023/08/22 01:09:48;;;;;;;2.60;2.50;;;;;;;22.35;67.84;97144.91;5025004;28;20341;-60
2023/08/22 01:12:47;;;;;;;2.97;2.88;;;;;;;22.46;67.61;97160.31;5022924;28;20059;-60
2023/08/22 01:15:24;;;;;;;2.40;2.30;;;;;;;22.32;68.00;97155.06;5024456;28;20057;-61
2023/08/22 01:17:54;;;;;;;2.25;2.25;;;;;;;22.16;69.00;97152.25;5024197;28;20495;-63
2023/08/22 01:20:22;;;;;;;2.40;2.33;;;;;;;22.16;68.88;97152.25;5023792;28;20045;-61
2023/08/22 01:22:49;;;;;;;2.20;2.20;;;;;;;22.14;69.20;97151.94;5024268;28;20050;-63
2023/08/22 01:25:16;;;;;;;2.25;2.25;;;;;;;22.02;69.64;97161.09;5022410;28;20081;-61
2023/08/22 01:27:58;;;;;;;2.13;2.13;;;;;;;21.86;69.13;97110.34;5024018;28;20064;-60
2023/08/22 01:30:35;;;;;;;2.20;2.20;;;;;;;22.09;69.33;97155.28;5024213;28;20419;-63
2023/08/22 01:33:07;;;;;;;2.70;2.60;;;;;;;22.11;69.60;97155.63;5024544;28;20053;-61
2023/08/22 01:35:35;;;;;;;2.25;2.25;;;;;;;22.02;69.58;97144.19;5032752;28;20049;-61
2023/08/22 01:38:03;;;;;;;2.03;2.03;;;;;;;22.09;69.59;97163.75;5043945;28;20491;-60
2023/08/22 01:40:31;;;;;;;2.40;2.30;;;;;;;22.12;69.48;97168.50;5042481;28;20366;-60
2023/08/22 01:42:58;;;;;;;2.28;2.25;;;;;;;22.14;69.28;97170.88;5042536;28;20257;-62
2023/08/22 01:45:25;;;;;;;2.75;2.65;;;;;;;22.09;69.30;97169.41;5043837;28;20252;-60
2023/08/22 01:47:52;;;;;;;1.98;1.98;;;;;;;22.11;69.12;97178.19;5043090;28;20507;-60
2023/08/22 01:50:19;;;;;;;2.53;2.42;;;;;;;22.10;69.81;97170.97;5043517;28;20142;-61
2023/08/22 01:52:45;;;;;;;2.42;2.38;;;;;;;22.04;69.74;97178.41;5048754;28;20052;-61
2023/08/22 01:55:14;;;;;;;2.65;2.55;;;;;;;22.00;69.99;97172.03;5043476;28;20340;-60
2023/08/22 01:57:41;;;;;;;2.30;2.30;;;;;;;22.04;69.81;97169.13;5043642;28;20140;-61
2023/08/22 02:00:09;;;;;;;2.50;2.40;;;;;;;21.67;70.08;97125.31;5042732;28;20491;-60
2023/08/22 02:02:36;;;;;;;2.08;2.08;;;;;;;21.97;70.32;97167.28;5042281;28;20053;-61
2023/08/22 02:05:03;;;;;;;2.50;2.40;;;;;;;21.99;70.47;97158.38;5041320;28;20080;-61
2023/08/22 02:07:34;;;;;;;2.28;2.28;;;;;;;21.80;71.05;97157.25;5042003;28;20059;-61
2023/08/22 02:10:01;;;;;;;2.20;2.20;;;;;;;21.80;71.19;97157.25;5042423;28;20057;-63
2023/08/22 02:12:27;;;;;;;2.15;2.15;;;;;;;21.82;71.27;97168.88;5042560;28;20456;-61
2023/08/22 02:14:54;;;;;;;2.03;2.03;;;;;;;21.72;71.74;97160.66;5042794;28;20059;-61
2023/08/22 02:17:21;;;;;;;2.25;2.25;;;;;;;21.70;71.52;97154.69;5041091;28;20075;-62
2023/08/22 02:19:47;;;;;;;2.67;2.58;;;;;;;21.57;72.11;97160.22;5040482;28;20059;-61
2023/08/22 02:22:14;;;;;;;2.22;2.22;;;;;;;21.47;71.54;97124.63;5041967;28;20044;-61
2023/08/22 02:24:41;;;;;;;2.42;2.33;;;;;;;21.27;71.41;97078.81;5042166;28;20052;-61
2023/08/22 02:27:07;;;;;;;2.10;2.10;;;;;;;21.74;71.52;97159.00;5042076;28;20059;-62
2023/08/22 02:29:35;;;;;;;2.53;2.42;;;;;;;21.74;71.44;97159.00;5042172;28;20443;-61
2023/08/22 02:32:02;;;;;;;2.00;2.00;;;;;;;21.55;72.35;97145.75;5042062;28;20431;-61
2023/08/22 02:34:28;;;;;;;2.50;2.40;;;;;;;21.27;72.49;97123.91;5041490;28;20040;-60
2023/08/22 02:36:55;;;;;;;2.20;2.20;;;;;;;21.49;72.53;97164.44;5020126;28;20053;-61
2023/08/22 02:39:22;;;;;;;1.90;1.90;;;;;;;21.57;72.31;97154.59;5021830;28;20057;-61
2023/08/22 02:41:49;;;;;;;2.03;2.03;;;;;;;21.61;72.16;97160.91;5006563;28;20056;-61
2023/08/22 02:44:15;;;;;;;2.42;2.38;;;;;;;21.59;71.96;97157.72;5019943;28;20065;-61
2023/08/22 02:46:42;;;;;;;2.10;2.10;;;;;;;21.54;72.55;97161.09;5020972;28;20049;-61
2023/08/22 02:49:09;;;;;;;2.38;2.35;;;;;;;21.52;72.48;97174.84;5020217;28;20057;-61
2023/08/22 02:51:35;;;;;;;2.45;2.38;;;;;;;21.64;72.06;97165.66;5021149;28;20060;-61
2023/08/22 02:54:02;;;;;;;2.33;2.33;;;;;;;21.59;72.16;97162.59;5021101;28;20071;-62
2023/08/22 02:56:29;;;;;;;2.22;2.22;;;;;;;21.60;72.20;97164.19;5019630;28;20439;-61
2023/08/22 02:58:55;;;;;;;2.35;2.28;;;;;;;21.44;73.05;97166.97;5020656;28;20518;-60
2023/08/22 03:01:22;;;;;;;2.20;2.20;;;;;;;21.51;72.78;97167.63;5020844;28;20083;-61
2023/08/22 03:03:51;;;;;;;2.80;2.70;;;;;;;21.50;72.68;97160.38;5019495;28;20053;-61
2023/08/22 03:06:17;;;;;;;2.17;2.17;;;;;;;21.42;71.99;97136.41;5020385;28;20057;-61
2023/08/22 03:08:44;;;;;;;2.00;2.00;;;;;;;19.76;72.26;96890.06;5021123;28;20045;-62
2023/08/22 03:11:11;;;;;;;2.50;2.40;;;;;;;21.45;72.60;97175.00;5021019;28;20053;-63
2023/08/22 03:13:37;;;;;;;2.30;2.30;;;;;;;21.34;72.85;97163.19;5021015;28;20057;-61
2023/08/22 03:16:04;;;;;;;2.30;2.30;;;;;;;21.25;73.27;97171.44;5020624;28;20567;-61
2023/08/22 03:18:31;;;;;;;2.10;2.10;;;;;;;21.33;72.86;97172.88;5021049;28;20512;-62
2023/08/22 03:20:58;;;;;;;2.10;2.10;;;;;;;21.29;73.27;97166.53;5021401;28;20049;-62
2023/08/22 03:23:24;;;;;;;2.30;2.30;;;;;;;21.16;73.41;97160.00;5021605;28;20056;-61
2023/08/22 03:26:02;;;;;;;2.10;2.10;;;;;;;21.35;72.89;97170.41;5021060;28;20566;-62
2023/08/22 03:28:31;;;;;;;2.70;2.60;;;;;;;21.37;72.41;97179.22;5021136;28;20059;-62
2023/08/22 03:31:02;;;;;;;2.20;2.20;;;;;;;21.27;73.06;97177.44;5021468;28;20052;-61
2023/08/22 03:33:30;;;;;;;2.15;2.15;;;;;;;20.90;73.42;97138.41;5021495;28;20515;-61
2023/08/22 03:35:57;;;;;;;2.17;2.17;;;;;;;21.16;73.70;97190.97;5040143;28;20064;-63
2023/08/22 03:38:25;;;;;;;2.60;2.50;;;;;;;21.23;73.28;97178.75;5041919;28;20079;-62
2023/08/22 03:40:54;;;;;;;2.00;2.00;;;;;;;21.30;72.97;97184.22;5041609;28;20079;-60
2023/08/22 03:43:20;;;;;;;2.20;2.20;;;;;;;21.19;73.36;97184.47;5041163;28;20045;-60
2023/08/22 03:45:47;;;;;;;2.22;2.22;;;;;;;20.93;73.51;97137.53;5041354;28;20048;-62
2023/08/22 03:48:14;;;;;;;2.10;2.10;;;;;;;20.78;72.79;97102.47;5041782;28;20049;-61
2023/08/22 03:50:42;;;;;;;2.20;2.20;;;;;;;21.28;73.17;97176.19;5041388;28;20122;-61
2023/08/22 03:53:12;;;;;;;2.38;2.33;;;;;;;21.31;73.14;97180.97;5039859;28;20184;-60
2023/08/22 03:55:40;;;;;;;2.47;2.38;;;;;;;21.36;72.85;97188.09;5042076;28;20052;-61
2023/08/22 03:58:07;;;;;;;2.28;2.28;;;;;;;21.36;73.03;97191.72;5040322;28;20531;-60
2023/08/22 04:00:33;;;;;;;2.53;2.42;;;;;;;21.38;73.02;97178.00;5041676;28;20052;-60
2023/08/22 04:03:00;;;;;;;2.17;2.17;;;;;;;21.41;72.84;97174.28;5041095;28;20049;-61
2023/08/22 04:05:27;;;;;;;2.60;2.50;;;;;;;21.42;72.91;97187.16;5040626;28;20057;-61
2023/08/22 04:07:54;;;;;;;2.17;2.17;;;;;;;21.41;72.81;97185.56;5040687;28;20052;-61
2023/08/22 04:10:21;;;;;;;2.70;2.60;;;;;;;21.48;72.68;97184.63;5038794;28;20053;-62
2023/08/22 04:12:48;;;;;;;2.33;2.30;;;;;;;21.41;73.07;97179.94;5038785;28;20523;-61
2023/08/22 04:15:15;;;;;;;2.30;2.30;;;;;;;21.44;72.93;97179.06;5040552;28;20053;-61
2023/08/22 04:17:42;;;;;;;2.35;2.33;;;;;;;21.49;73.04;97183.38;5040193;28;20124;-60
2023/08/22 04:20:11;;;;;;;2.30;2.30;;;;;;;21.56;72.30;97198.09;5039715;28;20049;-61
2023/08/22 04:22:40;;;;;;;2.38;2.30;;;;;;;21.54;71.27;97149.81;5038391;28;20428;-61
2023/08/22 04:25:09;;;;;;;2.20;2.20;;;;;;;21.94;71.10;97184.31;5039933;28;20095;-60
2023/08/22 04:27:37;;;;;;;2.50;2.40;;;;;;;22.15;69.75;97183.75;5041311;28;20057;-60
2023/08/22 04:30:05;;;;;;;2.25;2.25;;;;;;;21.97;69.39;97146.75;5044097;28;20064;-61
2023/08/22 04:32:32;;;;;;;2.60;2.50;;;;;;;22.26;69.93;97189.91;5043667;28;20461;-59
2023/08/22 04:34:59;;;;;;;2.00;2.00;;;;;;;22.45;68.72;97191.81;5043573;28;20084;-60
2023/08/22 04:37:26;;;;;;;2.20;2.20;;;;;;;22.56;68.54;97192.34;5043907;28;20077;-62
2023/08/22 04:39:53;;;;;;;2.45;2.35;;;;;;;22.76;68.17;97189.38;5043864;28;20056;-60
2023/08/22 04:42:20;;;;;;;2.33;2.30;;;;;;;22.71;68.08;97198.38;5044230;28;20049;-61
2023/08/22 04:44:46;;;;;;;2.28;2.28;;;;;;;22.38;67.11;97096.81;5044886;28;20059;-64
2023/08/22 04:47:13;;;;;;;2.80;2.70;;;;;;;23.19;66.30;97198.19;5042846;28;20053;-61
2023/08/22 04:49:40;;;;;;;2.75;2.65;;;;;;;23.27;66.36;97208.84;5043042;28;20049;-61
2023/08/22 04:52:07;;;;;;;2.67;2.58;;;;;;;23.41;65.92;97207.66;5044384;28;20053;-61
2023/08/22 04:54:34;;;;;;;2.60;2.50;;;;;;;23.35;64.93;97169.84;5042583;28;20055;-62
2023/08/22 04:57:01;;;;;;;3.13;3.03;;;;;;;23.23;64.94;97150.81;5044290;28;20049;-60
2023/08/22 04:59:27;;;;;;;2.60;2.50;;;;;;;23.42;65.04;97159.13;5043963;28;20049;-61
2023/08/22 05:01:54;;;;;;;2.47;2.38;;;;;;;23.84;64.41;97205.03;5043654;28;20060;-60
2023/08/22 05:04:21;;;;;;;2.92;2.83;;;;;;;24.09;63.83;97196.53;5043821;28;20087;-61
2023/08/22 05:06:48;;;;;;;3.20;3.10;;;;;;;24.28;63.36;97203.19;5043202;28;20120;-61
2023/08/22 05:09:15;;;;;;;2.80;2.70;;;;;;;24.21;62.01;97147.59;5041482;28;20084;-61
2023/08/22 05:11:42;;;;;;;2.88;2.78;;;;;;;24.75;61.19;97193.44;5042960;28;20061;-62
2023/08/22 05:14:09;;;;;;;3.13;3.03;;;;;;;24.94;61.44;97200.78;5043498;28;20079;-61
2023/08/22 05:16:36;;;;;;;3.05;2.95;;;;;;;25.07;61.14;97193.03;5042381;28;20049;-61
2023/08/22 05:19:03;;;;;;;3.20;3.10;;;;;;;25.29;60.53;97193.03;5043197;28;20081;-61
2023/08/22 05:21:30;;;;;;;3.35;3.25;;;;;;;25.48;60.06;97193.94;5043763;28;20423;-61
2023/08/22 05:23:57;;;;;;;3.08;2.97;;;;;;;25.56;59.96;97195.22;5042355;28;20057;-60
2023/08/22 05:26:23;;;;;;;2.88;2.78;;;;;;;25.69;59.52;97184.59;5042496;28;20076;-61
2023/08/22 05:28:50;;;;;;;3.33;3.22;;;;;;;25.77;58.91;97180.16;5044276;28;20060;-61
2023/08/22 05:31:23;;;;;;;3.58;3.47;;;;;;;25.98;58.56;97190.66;5044310;28;20056;-63
2023/08/22 05:33:51;;;;;;;3.10;3.00;;;;;;;26.15;58.54;97197.66;5044747;28;20045;-61
2023/08/22 05:36:17;;;;;;;3.33;3.22;;;;;;;26.17;58.64;97195.16;5044334;28;20052;-62
2023/08/22 05:38:44;;;;;;;3.60;3.50;;;;;;;26.49;58.17;97188.91;5042392;28;20442;-61
2023/08/22 05:41:11;;;;;;;3.28;3.17;;;;;;;26.74;57.47;97194.31;5043176;28;20268;-62
2023/08/22 05:43:38;;;;;;;3.67;3.58;;;;;;;26.94;57.33;97191.78;5041938;28;20045;-63
2023/08/22 05:46:04;;;;;;;3.85;3.75;;;;;;;27.02;56.51;97187.34;5043271;28;20053;-61
2023/08/22 05:48:31;;;;;;;3.70;3.60;;;;;;;27.07;55.68;97189.56;5043321;28;20048;-61
2023/08/22 05:50:58;;;;;;;3.63;3.53;;;;;;;26.61;55.26;97122.59;5043070;28;20425;-67
2023/08/22 05:53:25;;;;;;;3.67;3.58;;;;;;;27.49;55.51;97187.59;5039053;28;20319;-62
2023/08/22 05:55:52;;;;;;;3.75;3.65;;;;;;;27.62;55.38;97182.50;5041199;28;20124;-63
2023/08/22 05:58:19;;;;;;;3.83;3.72;;;;;;;27.43;55.53;97132.59;5061564;28;20052;-62
2023/08/22 06:00:46;;;;;;;3.95;3.85;;;;;;;27.88;55.59;97175.13;5061738;28;20047;-68
2023/08/22 06:03:13;;;;;;;4.13;4.03;;;;;;;27.88;54.88;97123.09;5061563;28;20088;-62
2023/08/22 06:05:40;;;;;;;4.20;4.10;;;;;;;28.20;53.66;97156.44;5062240;28;20064;-63
2023/08/22 06:08:06;;;;;;;3.80;3.70;;;;;;;28.59;53.29;97177.25;5025001;28;20049;-61
2023/08/22 06:10:33;;;;;;;4.13;4.03;;;;;;;28.64;52.64;97165.19;5023710;28;20053;-66
2023/08/22 06:13:00;;;;;;;4.38;4.28;;;;;;;29.07;51.63;97173.09;5056650;28;20080;-68
2023/08/22 06:15:27;;;;;;;4.40;4.30;;;;;;;29.12;50.22;97175.22;5061313;28;20506;-60
2023/08/22 06:17:53;;;;;;;4.50;4.40;;;;;;;29.40;50.23;97173.69;5060715;28;20067;-62
2023/08/22 06:20:20;;;;;;;4.47;4.38;;;;;;;29.33;48.68;97122.69;5059392;28;20448;-62
2023/08/22 06:22:47;;;;;;;4.65;4.55;;;;;;;29.76;49.23;97179.00;5060573;28;20071;-62
2023/08/22 06:25:13;;;;;;;4.57;4.47;;;;;;;29.95;48.12;97168.94;5059472;28;20072;-60
2023/08/22 06:27:40;;;;;;;4.43;4.32;;;;;;;29.75;46.84;97108.88;5061261;28;20060;-72
2023/08/22 06:30:08;;;;;;;4.75;4.65;;;;;;;30.28;46.91;97169.44;5061130;28;20126;-70
2023/08/22 06:32:35;;;;;;;4.88;4.78;;;;;;;30.36;45.14;97182.03;5059162;28;20412;-72
2023/08/22 06:35:03;;;;;;;4.70;4.60;;;;;;;30.08;45.35;97123.63;5059172;28;20053;-62
2023/08/22 06:37:30;;;;;;;5.22;5.13;;;;;;;30.70;45.60;97175.47;5053975;28;20056;-62
2023/08/22 06:39:57;;;;;;;4.75;4.65;;;;;;;28.76;44.84;96844.72;5060576;28;20054;-73
2023/08/22 06:42:24;;;;;;;4.85;4.75;;;;;;;30.98;44.25;97146.41;5060700;28;20561;-60
2023/08/22 06:44:51;;;;;;;4.90;4.80;;;;;;;30.49;43.95;97044.41;5061505;28;20059;-68
2023/08/22 06:47:17;;;;;;;4.75;4.65;;;;;;;31.19;44.45;97162.28;5060683;28;20083;-66
2023/08/22 06:49:44;;;;;;;4.65;4.55;;;;;;;31.22;43.08;97139.13;5061871;28;20503;-69
2023/08/22 06:52:11;;;;;;;4.57;4.47;;;;;;;30.33;43.01;96994.34;5061170;28;20251;-63
2023/08/22 06:54:38;;;;;;;4.70;4.60;;;;;;;31.76;42.83;97171.66;5060267;28;20411;-70
2023/08/22 06:57:04;;;;;;;4.93;4.82;;;;;;;31.90;42.46;97182.25;5060000;28;20049;-71
2023/08/22 06:59:31;;;;;;;5.20;5.10;;;;;;;31.97;42.17;97144.50;5060449;28;20057;-61
2023/08/22 07:01:58;;;;;;;4.90;4.80;;;;;;;32.20;41.95;97177.78;5061568;28;20111;-60
2023/08/22 07:04:25;;;;;;;5.03;4.93;;;;;;;32.28;41.42;97179.63;5060757;28;20245;-67
2023/08/22 07:06:54;;;;;;;4.88;4.78;;;;;;;32.19;41.11;97141.78;5061655;28;20056;-63
2023/08/22 07:09:21;;;;;;;4.85;4.75;;;;;;;32.50;40.93;97170.41;5060105;28;20542;-68
2023/08/22 07:11:48;;;;;;;5.20;5.10;;;;;;;32.54;40.26;97173.81;5059479;28;20435;-63
2023/08/22 07:14:14;;;;;;;4.88;4.78;;;;;;;32.58;39.71;97174.34;5061674;28;20075;-63
2023/08/22 07:16:41;;;;;;;4.90;4.80;;;;;;;31.33;40.01;96966.69;5059797;28;20534;-67
2023/08/22 07:19:08;;;;;;;5.15;5.05;;;;;;;32.04;39.53;97086.72;5061320;28;20105;-64
2023/08/22 07:21:34;;;;;;;5.13;5.03;;;;;;;32.29;40.10;97108.75;5052929;28;20140;-66
2023/08/22 07:24:03;;;;;;;5.18;5.07;;;;;;;32.46;39.19;97184.22;5021609;28;20052;-69
2023/08/22 07:26:30;;;;;;;4.40;4.30;;;;;;;31.54;39.60;97051.16;5028368;28;20062;-68
2023/08/22 07:28:57;;;;;;;4.38;4.28;;;;;;;31.54;39.87;97040.50;5060437;28;20056;-61
2023/08/22 07:31:24;;;;;;;4.93;4.82;;;;;;;32.09;39.53;97171.97;5060931;28;20574;-65
2023/08/22 07:33:51;;;;;;;5.22;5.13;;;;;;;32.46;40.10;97167.00;5061524;28;20284;-67
2023/08/22 07:36:20;;;;;;;4.40;4.30;;;;;;;32.57;40.29;97157.66;5050708;28;20526;-61
2023/08/22 07:38:47;;;;;;;4.93;4.82;;;;;;;30.84;39.33;96905.66;5059721;28;20337;-64
2023/08/22 07:41:14;;;;;;;4.85;4.75;;;;;;;32.64;38.87;97163.72;5060790;28;20106;-66
2023/08/22 07:43:41;;;;;;;4.60;4.50;;;;;;;32.59;39.24;97158.72;5060892;28;20059;-61
2023/08/22 07:46:07;;;;;;;4.88;4.78;;;;;;;32.64;38.79;97155.09;5060664;28;20652;-68
2023/08/22 07:48:34;;;;;;;5.03;4.93;;;;;;;31.90;38.18;97096.28;5058873;28;20045;-62
2023/08/22 07:51:01;;;;;;;5.18;5.07;;;;;;;32.32;38.36;97162.19;5060174;28;20052;-66
2023/08/22 07:53:27;;;;;;;5.28;5.18;;;;;;;32.62;37.83;97163.44;5060426;28;20763;-65
2023/08/22 07:55:54;;;;;;;4.75;4.65;;;;;;;32.57;37.83;97160.53;5058221;28;20060;-65
2023/08/22 07:58:20;;;;;;;4.60;4.50;;;;;;;32.16;38.20;97094.06;5060144;28;20299;-67
2023/08/22 08:00:48;;;;;;;4.93;4.82;;;;;;;32.12;37.81;97074.22;5042318;28;20057;-67
2023/08/22 08:03:14;;;;;;;5.30;5.20;;;;;;;32.75;38.12;97137.13;5058745;28;20056;-68
2023/08/22 08:05:41;;;;;;;5.07;4.97;;;;;;;32.92;37.51;97153.16;5064114;28;20094;-63
2023/08/22 08:08:08;;;;;;;5.18;5.07;;;;;;;32.54;37.69;97158.69;5064311;28;20061;-67
2023/08/22 08:10:38;;;;;;;4.68;4.57;;;;;;;32.30;37.85;97090.22;5062883;28;20329;-62
2023/08/22 08:13:05;;;;;;;5.07;4.97;;;;;;;32.70;37.41;97089.91;5064055;28;20087;-62
2023/08/22 08:15:32;;;;;;;5.20;5.10;;;;;;;33.29;36.23;97159.50;5064280;28;20044;-68
2023/08/22 08:18:01;;;;;;;4.97;4.88;;;;;;;33.56;35.99;97149.41;5064059;28;20551;-66
2023/08/22 08:20:28;;;;;;;4.65;4.55;;;;;;;32.78;36.42;97147.59;5062438;28;20658;-66
2023/08/22 08:22:54;;;;;;;4.47;4.38;;;;;;;33.12;36.05;97158.69;5061904;28;20603;-60
2023/08/22 08:25:21;;;;;;;4.97;4.88;;;;;;;32.91;36.49;97091.28;5062633;28;20467;-63
2023/08/22 08:27:48;;;;;;;5.72;5.53;;;;;;;33.43;36.06;97146.25;5063612;28;20059;-60
2023/08/22 08:30:16;;;;;;;4.57;4.47;;;;;;;32.56;35.90;97136.81;5063705;28;20468;-63
2023/08/22 08:32:43;;;;;;;5.20;5.10;;;;;;;32.48;37.15;97112.78;5044022;28;20133;-64
2023/08/22 08:35:11;;;;;;;4.40;4.30;;;;;;;33.01;36.57;97155.78;5025884;28;20050;-64
2023/08/22 08:37:37;;;;;;;4.80;4.70;;;;;;;32.68;36.99;97092.50;5057600;28;20056;-66
2023/08/22 08:40:08;;;;;;;5.22;5.13;;;;;;;32.39;37.19;97120.81;5064233;28;20578;-67
2023/08/22 08:42:38;;;;;;;5.05;4.95;;;;;;;33.31;36.25;97154.03;5049624;28;20827;-68
2023/08/22 08:45:05;;;;;;;4.85;4.75;;;;;;;33.47;36.21;97153.28;5043082;28;20049;-62
2023/08/22 08:47:33;;;;;;;4.78;4.68;;;;;;;33.37;36.48;97131.81;5057895;28;20130;-65
2023/08/22 08:50:01;;;;;;;5.07;4.97;;;;;;;33.65;36.45;97158.50;5066213;28;20121;-71
2023/08/22 08:52:29;;;;;;;5.07;4.97;;;;;;;33.93;35.88;97131.88;5064970;28;20045;-62
2023/08/22 08:54:57;;;;;;;5.10;5.00;;;;;;;34.12;36.03;97164.53;5062366;28;20485;-60
2023/08/22 08:57:24;;;;;;;5.88;5.68;;;;;;;33.89;35.66;97088.22;5063168;28;20056;-65
2023/08/22 08:59:50;;;;;;;5.80;5.60;;;;;;;34.43;35.51;97121.09;5064117;28;20048;-70
2023/08/22 09:02:17;;;;;;;4.60;4.50;;;;;;;34.58;35.08;97122.34;5065215;28;20074;-72
2023/08/22 09:04:44;;;;;;;5.07;4.97;;;;;;;33.87;35.23;97062.09;5063661;28;20053;-68
2023/08/22 09:07:11;;;;;;;5.10;5.00;;;;;;;34.13;35.43;97111.47;5061796;28;20056;-71
2023/08/22 09:09:38;;;;;;;4.82;4.72;;;;;;;34.62;35.27;97148.00;5052619;28;20790;-68
2023/08/22 09:12:07;;;;;;;5.18;5.07;;;;;;;33.87;34.91;97070.72;5031739;28;20853;-68
2023/08/22 09:14:41;;;;;;;5.38;5.28;;;;;;;33.66;35.25;97039.38;5042910;28;20048;-64
2023/08/22 09:17:07;;;;;;;;;;;;;;;34.19;35.54;97138.94;5043190;28;20048;-66
2023/08/22 09:19:34;;;;;;;5.35;5.25;;;;;;;33.77;35.54;97147.06;5042933;28;20031;-63
2023/08/22 09:22:03;;;;;;;5.03;4.93;;;;;;;32.72;35.99;97024.19;5040425;28;20125;-65
2023/08/22 09:24:31;;;;;;;4.95;4.85;;;;;;;33.56;36.39;97137.91;5042932;28;20053;-67
2023/08/22 09:27:03;;;;;;;4.70;4.60;;;;;;;33.20;35.87;97121.63;5041869;28;20049;-72
2023/08/22 09:29:33;;;;;;;4.95;4.85;;;;;;;33.60;35.87;97130.59;5034067;28;20057;-65
2023/08/22 09:32:03;;;;;;;5.15;5.05;;;;;;;33.63;35.75;97137.38;5030001;28;20056;-67
2023/08/22 09:34:30;;;;;;;4.97;4.88;;;;;;;33.65;36.28;97135.53;5041729;28;20044;-69
2023/08/22 09:36:57;;;;;;;4.75;4.65;;;;;;;34.17;35.05;97129.25;5048806;28;20057;-63
2023/08/22 09:39:24;;;;;;;5.18;5.07;;;;;;;34.40;34.62;97125.03;5062598;28;20060;-65
2023/08/22 09:41:54;;;;;;;5.47;5.35;;;;;;;34.74;35.17;97123.59;5062202;28;20121;-63
2023/08/22 09:44:23;;;;;;;5.28;5.18;;;;;;;34.64;34.67;97054.03;5061975;28;20051;-66
2023/08/22 09:46:52;;;;;;;5.55;5.40;;;;;;;34.10;35.36;97115.41;5061368;28;20311;-65
2023/08/22 09:49:20;;;;;;;5.35;5.25;;;;;;;34.33;35.39;97131.28;5061657;28;20183;-66
2023/08/22 09:51:51;;;;;;;5.03;4.93;;;;;;;34.37;35.18;97111.66;5060091;28;20049;-62
2023/08/22 09:54:17;;;;;;;5.18;5.07;;;;;;;33.90;34.90;97063.94;5035738;28;20049;-69
2023/08/22 09:56:45;;;;;;;5.63;5.45;;;;;;;34.25;35.46;97115.88;5040544;28;20049;-63
2023/08/22 09:59:16;;;;;;;4.90;4.80;;;;;;;33.86;35.81;97074.91;5042188;28;20049;-63
2023/08/22 10:01:43;;;;;;;5.35;5.25;;;;;;;34.40;35.51;97119.28;5035752;28;20070;-62
2023/08/22 10:04:10;;;;;;;5.97;5.78;;;;;;;34.30;35.06;97126.59;5057291;28;20044;-65
2023/08/22 10:06:38;;;;;;;5.10;5.00;;;;;;;34.22;35.10;97125.56;5036470;28;20512;-61
2023/08/22 10:09:10;;;;;;;5.03;4.93;;;;;;;33.55;35.13;96970.44;5040069;28;20060;-69
2023/08/22 10:11:45;;;;;;;5.07;4.97;;;;;;;33.94;35.03;97058.72;5041036;28;20083;-68
2023/08/22 10:14:23;;;;;;;4.93;4.82;;;;;;;33.87;33.83;97070.72;5024320;28;20057;-73
2023/08/22 10:16:50;;;;;;;5.65;5.45;;;;;;;33.85;35.43;97073.31;5038619;28;20520;-63
2023/08/22 10:19:20;;;;;;;5.28;5.18;;;;;;;34.35;34.46;97120.06;5041089;28;20041;-68
2023/08/22 10:21:47;;;;;;;5.22;5.13;;;;;;;34.95;33.95;97124.84;5035430;28;20041;-70
2023/08/22 10:24:30;;;;;;;5.07;4.97;;;;;;;34.85;34.36;97080.34;5041446;28;20076;-70
2023/08/22 10:27:02;;;;;;;5.25;5.15;;;;;;;35.17;34.32;97125.47;5048319;28;20055;-64
2023/08/22 10:29:36;;;;;;;5.63;5.43;;;;;;;35.29;34.01;97102.34;5062290;28;20114;-63
2023/08/22 10:32:03;;;;;;;4.97;4.88;;;;;;;35.06;34.33;97101.72;5045233;28;20059;-71
2023/08/22 10:34:39;;;;;;;4.72;4.63;;;;;;;35.26;35.06;97109.19;5061526;28;20049;-63
2023/08/22 10:37:11;;;;;;;5.03;4.93;;;;;;;35.37;33.79;97117.78;5042361;28;20049;-62
2023/08/22 10:39:40;;;;;;;4.53;4.43;;;;;;;34.92;34.46;97108.63;5043091;28;20057;-65
2023/08/22 10:42:15;;;;;;;5.65;5.45;;;;;;;35.03;34.05;97074.75;5041070;28;20076;-64
2023/08/22 10:44:47;;;;;;;4.72;4.63;;;;;;;35.46;34.38;97115.34;5043070;28;20484;-71
2023/08/22 10:47:21;;;;;;;4.95;4.85;;;;;;;35.10;33.98;97103.00;5040815;28;20139;-67
2023/08/22 10:49:49;;;;;;;5.25;5.15;;;;;;;33.69;33.91;96894.63;5042570;28;20148;-68
2023/08/22 10:52:39;;;;;;;4.85;4.75;;;;;;;35.00;33.94;97028.94;5037679;28;20053;-69
2023/08/22 10:55:13;;;;;;;5.35;5.25;;;;;;;35.24;34.81;97100.31;5041105;28;20057;-65
2023/08/22 10:57:47;;;;;;;5.65;5.45;;;;;;;35.02;33.54;97037.84;5042312;28;20123;-66
2023/08/22 11:00:18;;;;;;;5.80;5.60;;;;;;;35.36;33.27;97085.31;5041725;28;20049;-66
2023/08/22 11:02:56;;;;;;;5.00;4.90;;;;;;;35.15;33.91;97038.03;5040422;28;20140;-62
2023/08/22 11:05:23;;;;;;;5.32;5.22;;;;;;;35.02;34.08;97055.13;5041379;28;20045;-63
2023/08/22 11:07:51;;;;;;;5.80;5.60;;;;;;;35.29;33.82;97002.28;5039447;28;20060;-68
2023/08/22 11:10:20;;;;;;;5.07;4.97;;;;;;;35.91;33.05;97073.31;5041387;28;20056;-71
2023/08/22 11:12:49;;;;;;;5.65;5.45;;;;;;;35.36;33.75;97055.66;5039801;28;20084;-61
2023/08/22 11:15:19;;;;;;;5.57;5.40;;;;;;;35.15;33.05;96994.81;5040567;28;20055;-72
2023/08/22 11:17:46;;;;;;;5.38;5.28;;;;;;;35.11;34.42;97092.25;5041474;28;20398;-66
2023/08/22 11:20:15;;;;;;;5.05;4.95;;;;;;;35.02;34.17;97086.81;5040373;28;20049;-75
2023/08/22 11:22:45;;;;;;;5.43;5.32;;;;;;;35.34;33.61;97047.56;5038534;28;20057;-71
2023/08/22 11:25:13;;;;;;;5.15;5.05;;;;;;;35.41;33.37;97069.28;5041765;28;20052;-73
2023/08/22 11:27:41;;;;;;;5.20;5.10;;;;;;;35.52;32.83;97057.66;5041362;28;20049;-67
2023/08/22 11:30:09;;;;;;;5.78;5.57;;;;;;;35.02;33.53;96974.47;5041475;28;20811;-67
2023/08/22 11:32:38;;;;;;;5.85;5.65;;;;;;;35.57;33.95;97091.44;5040509;28;20108;-71
2023/08/22 11:35:08;;;;;;;5.72;5.53;;;;;;;35.28;33.22;97072.75;5041922;28;20148;-66
2023/08/22 11:37:37;;;;;;;5.75;5.55;;;;;;;35.16;32.97;97036.69;5045711;28;20049;-66